createdAt,value
2018-11-11T00:01:56.904Z,5.13
2018-11-11T00:04:25.272Z,5.33
2018-11-11T00:06:54.138Z,6.27
2018-11-11T00:09:22.549Z,5.13
2018-11-11T00:11:50.964Z,6.17
2018-11-11T00:14:19.339Z,6.10
2018-11-11T00:16:47.824Z,5.37
2018-11-11T00:19:16.170Z,5.67
2018-11-11T00:21:44.627Z,5.63
2018-11-11T00:24:13.178Z,6.20
2018-11-11T00:26:41.620Z,6.37
2018-11-11T00:29:10.008Z,5.10
2018-11-11T00:31:38.385Z,4.53
2018-11-11T00:34:06.774Z,3.93
2018-11-11T00:36:35.171Z,4.00
2018-11-11T00:39:04.649Z,4.63
2018-11-11T00:41:33.058Z,4.47
2018-11-11T00:44:01.454Z,3.73
2018-11-11T00:46:29.839Z,3.87
2018-11-11T00:48:59.156Z,4.03
2018-11-11T00:51:27.518Z,3.70
2018-11-11T00:53:55.877Z,4.93
2018-11-11T00:56:24.247Z,4.23
2018-11-11T00:58:52.652Z,4.40
2018-11-11T01:01:21.037Z,4.40
2018-11-11T01:03:49.403Z,4.23
2018-11-11T01:06:17.813Z,4.07
2018-11-11T01:13:22.223Z,4.33
2018-11-11T01:15:50.627Z,5.07
2018-11-11T01:18:19.000Z,3.57
2018-11-11T01:20:48.415Z,3.77
2018-11-11T01:23:16.785Z,3.40
2018-11-11T01:25:45.153Z,3.63
2018-11-11T01:28:13.703Z,4.50
2018-11-11T01:30:42.100Z,3.50
2018-11-11T01:33:10.472Z,3.43
2018-11-11T01:35:38.888Z,3.73
2018-11-11T01:38:07.344Z,3.07
2018-11-11T01:40:35.736Z,3.77
2018-11-11T01:43:04.759Z,3.63
2018-11-11T01:45:33.258Z,3.33
2018-11-11T01:48:01.854Z,3.50
2018-11-11T01:50:30.348Z,4.20
2018-11-11T01:52:58.742Z,3.60
2018-11-11T01:55:27.110Z,3.60
2018-11-11T01:57:55.568Z,3.33
2018-11-11T02:00:24.182Z,3.67
2018-11-11T02:02:52.547Z,3.27
2018-11-11T02:05:21.007Z,3.53
2018-11-11T02:07:49.528Z,3.20
2018-11-11T02:10:17.913Z,3.13
2018-11-11T02:12:46.923Z,3.30
2018-11-11T02:15:16.225Z,3.30
2018-11-11T02:17:44.589Z,2.77
2018-11-11T02:20:20.161Z,3.40
2018-11-11T02:22:49.519Z,3.40
2018-11-11T02:25:17.880Z,2.67
2018-11-11T02:27:46.621Z,2.87
2018-11-11T02:30:16.226Z,3.00
2018-11-11T02:32:44.941Z,3.10
2018-11-11T02:35:13.579Z,3.07
2018-11-11T02:37:42.279Z,2.00
2018-11-11T02:40:12.487Z,3.47
2018-11-11T02:42:40.917Z,2.80
2018-11-11T02:45:10.805Z,3.23
2018-11-11T02:47:39.254Z,3.07
2018-11-11T02:50:09.702Z,2.40
2018-11-11T02:52:38.147Z,3.00
2018-11-11T02:55:07.093Z,3.27
2018-11-11T02:57:35.752Z,2.73
2018-11-11T03:00:04.679Z,2.83
2018-11-11T03:02:33.066Z,2.43
2018-11-11T03:05:01.483Z,2.70
2018-11-11T03:07:29.864Z,3.10
2018-11-11T03:09:58.282Z,2.93
2018-11-11T03:12:26.664Z,2.80
2018-11-11T03:14:55.104Z,3.20
2018-11-11T03:17:23.512Z,3.00
2018-11-11T03:19:51.916Z,3.27
2018-11-11T03:22:20.288Z,2.87
2018-11-11T03:24:48.644Z,2.90
2018-11-11T03:27:17.007Z,3.10
2018-11-11T03:29:45.415Z,2.60
2018-11-11T03:32:13.807Z,2.60
2018-11-11T03:34:42.223Z,2.60
2018-11-11T03:37:10.620Z,2.43
2018-11-11T03:39:39.015Z,2.50
2018-11-11T03:42:07.398Z,2.07
2018-11-11T03:44:35.762Z,2.77
2018-11-11T03:47:04.164Z,2.77
2018-11-11T03:49:32.556Z,2.60
2018-11-11T03:52:00.937Z,2.40
2018-11-11T03:54:29.311Z,2.90
2018-11-11T03:56:57.745Z,2.57
2018-11-11T03:59:26.137Z,2.60
2018-11-11T04:01:54.576Z,2.27
2018-11-11T04:04:23.109Z,3.03
2018-11-11T04:06:51.479Z,2.83
2018-11-11T04:09:19.854Z,2.60
2018-11-11T04:11:48.224Z,2.93
2018-11-11T04:14:18.303Z,2.93
2018-11-11T04:16:46.688Z,2.40
2018-11-11T04:19:15.084Z,2.10
2018-11-11T04:21:43.475Z,2.63
2018-11-11T04:24:11.895Z,2.10
2018-11-11T04:26:40.324Z,1.87
2018-11-11T04:29:08.809Z,2.20
2018-11-11T04:31:38.254Z,2.30
2018-11-11T04:34:06.651Z,2.10
2018-11-11T04:36:35.054Z,2.97
2018-11-11T04:39:04.085Z,2.63
2018-11-11T04:41:32.768Z,2.40
2018-11-11T04:44:01.642Z,2.17
2018-11-11T04:46:30.109Z,2.30
2018-11-11T04:48:58.657Z,2.27
2018-11-11T04:51:27.139Z,2.50
2018-11-11T04:53:55.951Z,2.07
2018-11-11T04:56:24.333Z,2.30
2018-11-11T04:58:52.740Z,2.17
2018-11-11T05:01:21.210Z,2.27
2018-11-11T05:03:49.805Z,1.80
2018-11-11T05:06:18.173Z,1.80
2018-11-11T05:08:46.564Z,1.97
2018-11-11T05:11:14.969Z,1.83
2018-11-11T05:13:43.645Z,1.90
2018-11-11T05:16:12.101Z,2.10
2018-11-11T05:18:40.607Z,2.40
2018-11-11T05:21:09.033Z,2.53
2018-11-11T05:23:37.421Z,2.27
2018-11-11T05:26:05.909Z,2.60
2018-11-11T05:28:34.349Z,3.03
2018-11-11T05:31:02.758Z,2.87
2018-11-11T05:33:31.178Z,3.47
2018-11-11T05:35:59.726Z,3.47
2018-11-11T05:38:28.134Z,3.50
2018-11-11T05:40:56.516Z,2.93
2018-11-11T05:43:24.903Z,2.80
2018-11-11T05:45:53.273Z,3.40
2018-11-11T05:48:21.684Z,3.70
2018-11-11T05:50:50.069Z,3.63
2018-11-11T05:53:18.447Z,3.40
2018-11-11T05:55:46.884Z,4.07
2018-11-11T05:58:15.292Z,3.63
2018-11-11T06:00:43.766Z,3.40
2018-11-11T06:03:12.244Z,4.03
2018-11-11T06:05:40.681Z,3.20
2018-11-11T06:08:09.148Z,3.40
2018-11-11T06:10:37.572Z,3.00
2018-11-11T06:13:05.993Z,2.67
2018-11-11T06:15:34.465Z,2.80
2018-11-11T06:18:02.851Z,3.27
2018-11-11T06:20:31.255Z,3.07
2018-11-11T06:22:59.673Z,2.97
2018-11-11T06:25:28.089Z,2.30
2018-11-11T06:27:56.606Z,2.10
2018-11-11T06:30:25.058Z,1.97
2018-11-11T06:32:53.425Z,2.20
2018-11-11T06:35:21.916Z,2.30
2018-11-11T06:37:50.305Z,1.53
2018-11-11T06:40:18.698Z,1.97
2018-11-11T06:42:47.114Z,1.57
2018-11-11T06:45:15.867Z,1.70
2018-11-11T06:47:44.985Z,1.87
2018-11-11T06:50:14.475Z,1.30
2018-11-11T06:52:43.504Z,1.70
2018-11-11T06:55:12.288Z,1.50
2018-11-11T06:57:40.930Z,1.33
2018-11-11T07:00:11.506Z,1.50
2018-11-11T07:02:44.484Z,1.90
2018-11-11T07:05:13.903Z,1.97
2018-11-11T07:07:42.394Z,1.90
2018-11-11T07:10:10.921Z,1.60
2018-11-11T07:12:39.280Z,2.50
2018-11-11T07:15:07.666Z,1.80
2018-11-11T07:17:36.096Z,1.97
2018-11-11T07:20:04.894Z,2.07
2018-11-11T07:22:33.312Z,2.17
2018-11-11T07:25:01.786Z,2.37
2018-11-11T07:27:30.408Z,2.90
2018-11-11T07:29:59.155Z,2.30
2018-11-11T07:32:28.458Z,2.53
2018-11-11T07:34:56.832Z,2.17
2018-11-11T07:37:25.209Z,2.43
2018-11-11T07:39:53.623Z,2.67
2018-11-11T07:42:22.064Z,2.50
2018-11-11T07:44:50.796Z,2.60
2018-11-11T07:47:19.251Z,2.23
2018-11-11T07:49:47.670Z,2.43
2018-11-11T07:52:16.067Z,2.33
2018-11-11T07:54:44.536Z,2.87
2018-11-11T07:57:13.204Z,2.67
2018-11-11T07:59:41.571Z,2.70
2018-11-11T08:02:10.297Z,2.57
2018-11-11T08:04:38.851Z,2.47
2018-11-11T08:07:07.241Z,2.43
2018-11-11T08:09:35.805Z,2.73
2018-11-11T08:12:05.544Z,2.17
2018-11-11T08:14:33.984Z,2.33
2018-11-11T08:17:02.377Z,2.63
2018-11-11T08:19:30.982Z,2.20
2018-11-11T08:21:59.435Z,2.17
2018-11-11T08:24:27.968Z,1.97
2018-11-11T08:26:56.406Z,2.53
2018-11-11T08:29:24.806Z,2.23
2018-11-11T08:31:53.209Z,2.27
2018-11-11T08:34:21.658Z,2.10
2018-11-11T08:36:50.030Z,1.60
2018-11-11T08:39:18.930Z,2.40
2018-11-11T08:41:47.527Z,2.10
2018-11-11T08:44:16.049Z,2.00
2018-11-11T08:48:14.066Z,2.07
2018-11-11T08:50:42.777Z,2.60
2018-11-11T08:53:11.943Z,1.90
2018-11-11T08:55:40.405Z,2.40
2018-11-11T08:58:09.372Z,2.03
2018-11-11T09:00:37.921Z,2.27
2018-11-11T09:03:06.837Z,2.30
2018-11-11T09:05:35.333Z,2.20
2018-11-11T09:08:03.725Z,1.70
2018-11-11T09:10:32.127Z,2.03
2018-11-11T09:13:00.493Z,1.93
2018-11-11T09:15:28.872Z,2.00
2018-11-11T09:17:57.271Z,2.20
2018-11-11T09:20:25.637Z,2.20
2018-11-11T09:22:54.035Z,1.40
2018-11-11T09:25:22.521Z,1.13
2018-11-11T09:27:51.120Z,1.70
2018-11-11T09:30:19.604Z,1.43
2018-11-11T09:32:48.762Z,2.03
2018-11-11T09:35:17.202Z,1.60
2018-11-11T09:37:45.965Z,1.80
2018-11-11T09:40:14.356Z,1.80
2018-11-11T09:42:43.165Z,1.97
2018-11-11T09:45:13.442Z,1.80
2018-11-11T09:47:42.068Z,2.33
2018-11-11T09:50:12.116Z,1.87
2018-11-11T09:52:40.661Z,1.97
2018-11-11T09:55:10.436Z,2.40
2018-11-11T09:57:39.285Z,2.17
2018-11-11T10:00:14.886Z,2.10
2018-11-11T10:02:45.127Z,2.07
2018-11-11T10:05:19.973Z,1.77
2018-11-11T10:07:54.359Z,2.07
2018-11-11T10:10:29.203Z,2.10
2018-11-11T10:13:07.663Z,2.23
2018-11-11T10:15:55.936Z,1.73
2018-11-11T10:18:43.413Z,2.00
2018-11-11T10:21:20.382Z,2.00
2018-11-11T10:23:59.717Z,2.53
2018-11-11T10:26:33.499Z,2.47
2018-11-11T10:29:09.139Z,1.97
2018-11-11T10:31:41.715Z,2.33
2018-11-11T10:34:15.647Z,2.27
2018-11-11T10:36:47.428Z,2.40
2018-11-11T10:39:20.258Z,2.47
2018-11-11T10:41:55.338Z,2.57
2018-11-11T10:45:00.060Z,2.10
2018-11-11T10:47:33.971Z,2.17
2018-11-11T10:50:04.946Z,2.40
2018-11-11T10:52:33.350Z,2.03
2018-11-11T10:55:01.765Z,1.90
2018-11-11T10:57:30.182Z,2.13
2018-11-11T10:59:58.595Z,1.77
2018-11-11T11:02:27.544Z,1.60
2018-11-11T11:05:01.254Z,1.90
2018-11-11T11:07:29.796Z,2.07
2018-11-11T11:09:58.200Z,1.70
2018-11-11T11:12:27.199Z,2.20
2018-11-11T11:14:55.602Z,2.50
2018-11-11T11:17:24.324Z,1.93
2018-11-11T11:19:52.708Z,2.13
2018-11-11T11:22:21.132Z,2.57
2018-11-11T11:24:50.214Z,1.30
2018-11-11T11:27:18.681Z,1.80
2018-11-11T11:29:47.285Z,2.00
2018-11-11T11:32:15.722Z,2.20
2018-11-11T11:34:44.259Z,1.83
2018-11-11T11:37:12.633Z,2.00
2018-11-11T11:39:41.005Z,2.53
2018-11-11T11:42:09.407Z,2.00
2018-11-11T11:44:37.887Z,2.23
2018-11-11T11:47:06.381Z,1.90
2018-11-11T11:49:34.765Z,2.53
2018-11-11T11:52:03.177Z,2.43
2018-11-11T11:54:31.569Z,2.20
2018-11-11T11:56:59.982Z,1.97
2018-11-11T11:59:28.510Z,2.37
2018-11-11T12:01:57.089Z,2.60
2018-11-11T12:04:25.737Z,2.63
2018-11-11T12:06:54.124Z,2.37
2018-11-11T12:09:22.508Z,2.10
2018-11-11T12:11:50.903Z,2.37
2018-11-11T12:14:19.314Z,2.33
2018-11-11T12:16:47.827Z,2.27
2018-11-11T12:19:16.336Z,2.40
2018-11-11T12:21:44.793Z,2.37
2018-11-11T12:24:13.194Z,2.73
2018-11-11T12:26:41.593Z,3.10
2018-11-11T12:29:10.170Z,2.50
2018-11-11T12:31:38.630Z,2.40
2018-11-11T12:34:07.682Z,2.47
2018-11-11T12:36:36.151Z,2.30
2018-11-11T12:39:07.710Z,2.20
2018-11-11T12:41:36.296Z,2.53
2018-11-11T12:44:04.886Z,2.40
2018-11-11T12:46:33.511Z,2.27
2018-11-11T12:49:02.111Z,2.10
2018-11-11T12:51:30.789Z,2.40
2018-11-11T12:53:59.364Z,2.80
2018-11-11T12:56:27.782Z,2.97
2018-11-11T12:58:57.378Z,2.37
2018-11-11T13:01:26.077Z,2.87
2018-11-11T13:03:54.531Z,3.10
2018-11-11T13:06:22.937Z,2.47
2018-11-11T13:08:51.319Z,2.50
2018-11-11T13:11:20.739Z,2.50
2018-11-11T13:13:49.362Z,2.10
2018-11-11T13:16:17.948Z,2.37
2018-11-11T13:18:46.393Z,3.17
2018-11-11T13:21:14.786Z,2.20
2018-11-11T13:23:43.209Z,2.37
2018-11-11T13:26:11.600Z,2.73
2018-11-11T13:28:40.066Z,2.40
2018-11-11T13:31:08.695Z,2.33
2018-11-11T13:33:37.321Z,2.50
2018-11-11T13:36:05.712Z,1.90
2018-11-11T13:38:35.263Z,2.03
2018-11-11T13:41:04.141Z,2.00
2018-11-11T13:43:32.621Z,2.10
2018-11-11T13:46:01.032Z,2.17
2018-11-11T13:48:29.484Z,1.83
2018-11-11T13:50:57.864Z,2.13
2018-11-11T13:53:26.305Z,1.70
2018-11-11T13:55:54.900Z,1.87
2018-11-11T13:58:23.276Z,1.80
2018-11-11T14:00:51.674Z,1.70
2018-11-11T14:03:20.093Z,1.57
2018-11-11T14:05:48.535Z,1.60
2018-11-11T14:08:16.968Z,1.70
2018-11-11T14:10:45.812Z,1.73
2018-11-11T14:13:14.342Z,1.87
2018-11-11T14:15:42.759Z,1.37
2018-11-11T14:18:11.326Z,1.63
2018-11-11T14:20:40.432Z,1.60
2018-11-11T14:23:08.846Z,1.50
2018-11-11T14:25:37.287Z,1.30
2018-11-11T14:28:06.167Z,1.83
2018-11-11T14:30:34.573Z,1.40
2018-11-11T14:33:03.071Z,1.40
2018-11-11T14:35:31.492Z,1.53
2018-11-11T14:37:59.918Z,1.60
2018-11-11T14:40:29.355Z,1.40
2018-11-11T14:42:57.776Z,1.20
2018-11-11T14:45:26.614Z,1.50
2018-11-11T14:47:55.933Z,1.27
2018-11-11T14:50:24.872Z,1.30
2018-11-11T14:52:53.475Z,1.20
2018-11-11T15:00:03.302Z,1.20
2018-11-11T15:02:31.732Z,1.10
2018-11-11T15:05:00.156Z,1.20
2018-11-11T15:07:28.885Z,1.10
2018-11-11T15:09:57.370Z,1.10
2018-11-11T15:12:25.820Z,1.53
2018-11-11T15:14:54.258Z,1.60
2018-11-11T15:17:22.664Z,1.50
2018-11-11T15:19:51.502Z,1.23
2018-11-11T15:22:21.443Z,1.30
2018-11-11T15:24:49.873Z,1.40
2018-11-11T15:27:18.289Z,1.43
2018-11-11T15:29:46.739Z,1.83
2018-11-11T15:32:15.359Z,2.03
2018-11-11T15:34:43.745Z,1.50
2018-11-11T15:37:12.199Z,1.43
2018-11-11T15:39:40.947Z,1.80
2018-11-11T15:42:10.155Z,1.20
2018-11-11T15:44:38.601Z,1.40
2018-11-11T15:47:07.019Z,1.80
2018-11-11T15:49:35.423Z,1.50
2018-11-11T15:52:03.937Z,1.37
2018-11-11T15:54:32.505Z,1.50
2018-11-11T15:57:01.127Z,1.30
2018-11-11T15:59:29.571Z,1.03
2018-11-11T16:01:58.018Z,1.50
2018-11-11T16:04:26.413Z,1.50
2018-11-11T16:06:54.821Z,1.70
2018-11-11T16:09:23.269Z,1.17
2018-11-11T16:11:51.715Z,1.50
2018-11-11T16:14:20.136Z,1.17
2018-11-11T16:16:48.619Z,1.40
2018-11-11T16:19:17.013Z,1.30
2018-11-11T16:21:45.430Z,1.20
2018-11-11T16:24:13.882Z,1.30
2018-11-11T16:26:42.294Z,1.10
2018-11-11T16:29:10.726Z,1.17
2018-11-11T16:31:39.126Z,1.20
2018-11-11T16:34:07.996Z,1.50
2018-11-11T16:36:36.565Z,1.03
2018-11-11T16:39:07.931Z,0.80
2018-11-11T16:41:36.642Z,1.00
2018-11-11T16:44:05.144Z,0.90
2018-11-11T16:46:33.577Z,0.80
2018-11-11T16:49:01.979Z,0.90
2018-11-11T16:51:30.414Z,0.97
2018-11-11T16:53:59.233Z,0.90
2018-11-11T16:56:28.349Z,1.10
2018-11-11T16:58:56.753Z,1.03
2018-11-11T17:01:25.315Z,1.00
2018-11-11T17:03:53.731Z,1.13
2018-11-11T17:06:22.151Z,1.13
2018-11-11T17:08:50.563Z,0.80
2018-11-11T17:11:19.174Z,1.03
2018-11-11T17:13:47.598Z,0.90
2018-11-11T17:16:15.994Z,1.10
2018-11-11T17:18:44.352Z,1.00
2018-11-11T17:21:12.886Z,0.80
2018-11-11T17:23:41.481Z,1.00
2018-11-11T17:26:09.854Z,1.03
2018-11-11T17:28:39.241Z,1.27
2018-11-11T17:31:07.667Z,0.83
2018-11-11T17:33:36.053Z,1.20
2018-11-11T17:36:04.501Z,1.13
2018-11-11T17:38:33.032Z,1.13
2018-11-11T17:41:01.406Z,1.10
2018-11-11T17:43:29.884Z,1.30
2018-11-11T17:45:58.260Z,1.00
2018-11-11T17:48:26.653Z,1.40
2018-11-11T17:50:55.263Z,1.30
2018-11-11T17:53:23.664Z,1.00
2018-11-11T17:55:52.038Z,1.20
2018-11-11T17:58:20.420Z,1.20
2018-11-11T18:00:48.805Z,1.30
2018-11-11T18:03:17.267Z,1.30
2018-11-11T18:05:45.827Z,1.63
2018-11-11T18:08:14.802Z,1.20
2018-11-11T18:10:43.495Z,1.37
2018-11-11T18:13:12.137Z,1.30
2018-11-11T18:15:40.595Z,1.20
2018-11-11T18:18:08.970Z,1.20
2018-11-11T18:20:37.502Z,1.37
2018-11-11T18:23:06.891Z,1.50
2018-11-11T18:25:35.597Z,1.97
2018-11-11T18:28:04.616Z,1.70
2018-11-11T18:30:34.273Z,1.50
2018-11-11T18:33:02.739Z,1.73
2018-11-11T18:35:31.594Z,1.57
2018-11-11T18:38:00.683Z,2.23
2018-11-11T18:40:30.019Z,1.97
2018-11-11T18:42:58.617Z,2.10
2018-11-11T18:45:28.909Z,2.00
2018-11-11T18:49:26.934Z,2.57
2018-11-11T18:51:55.571Z,2.03
2018-11-11T18:54:25.804Z,2.17
2018-11-11T18:56:54.220Z,3.20
2018-11-11T18:59:22.863Z,3.90
2018-11-11T19:01:51.321Z,6.60
2018-11-11T19:04:19.987Z,5.20
2018-11-11T19:06:48.399Z,5.00
2018-11-11T19:09:16.861Z,5.70
2018-11-11T19:11:45.496Z,4.97
2018-11-11T19:14:13.966Z,5.33
2018-11-11T19:16:42.344Z,5.30
2018-11-11T19:19:10.745Z,4.80
2018-11-11T19:21:39.175Z,6.23
2018-11-11T19:24:07.800Z,6.77
2018-11-11T19:26:36.354Z,7.00
2018-11-11T19:29:04.918Z,5.30
2018-11-11T19:31:33.332Z,5.00
2018-11-11T19:34:01.708Z,5.00
2018-11-11T19:36:30.169Z,4.57
2018-11-11T19:38:58.614Z,4.87
2018-11-11T19:46:03.277Z,4.80
2018-11-11T19:48:31.719Z,5.07
2018-11-11T19:51:00.182Z,4.57
2018-11-11T19:53:28.706Z,4.60
2018-11-11T19:55:57.445Z,4.77
2018-11-11T19:58:25.892Z,4.83
2018-11-11T20:00:54.774Z,4.83
2018-11-11T20:03:23.229Z,4.43
2018-11-11T20:05:51.676Z,5.67
2018-11-11T20:08:20.200Z,5.13
2018-11-11T20:10:48.711Z,6.57
2018-11-11T20:13:17.287Z,7.33
2018-11-11T20:15:45.695Z,7.70
2018-11-11T20:18:14.155Z,8.93
2018-11-11T20:20:42.573Z,8.77
2018-11-11T20:23:10.961Z,9.60
2018-11-11T20:25:39.357Z,9.53
2018-11-11T20:28:07.796Z,10.00
2018-11-11T20:30:37.638Z,9.37
2018-11-11T20:33:06.377Z,10.20
2018-11-11T20:35:34.905Z,10.30
2018-11-11T20:38:03.351Z,7.70
2018-11-11T20:40:32.385Z,7.10
2018-11-11T20:43:00.823Z,6.47
2018-11-11T20:45:30.812Z,6.77
2018-11-11T20:47:59.312Z,6.70
2018-11-11T20:50:29.130Z,5.97
2018-11-11T20:52:59.016Z,6.50
2018-11-11T20:55:27.413Z,5.33
2018-11-11T20:57:55.943Z,6.47
2018-11-11T21:00:25.665Z,5.87
2018-11-11T21:02:54.087Z,6.97
2018-11-11T21:05:23.834Z,7.90
2018-11-11T21:07:52.407Z,8.03
2018-11-11T21:10:22.335Z,7.47
2018-11-11T21:12:50.814Z,7.00
2018-11-11T21:15:22.311Z,7.63
2018-11-11T21:17:52.759Z,7.63
2018-11-11T21:20:24.611Z,7.07
2018-11-11T21:22:53.037Z,10.67
2018-11-11T21:25:21.513Z,12.00
2018-11-11T21:27:51.061Z,12.40
2018-11-11T21:30:20.851Z,12.60
2018-11-11T21:32:50.599Z,13.80
2018-11-11T21:35:18.998Z,13.57
2018-11-11T21:37:47.465Z,13.90
2018-11-11T21:40:17.375Z,14.13
2018-11-11T21:42:47.169Z,15.70
2018-11-11T21:45:16.858Z,16.43
2018-11-11T21:47:45.505Z,16.13
2018-11-11T21:50:16.179Z,16.50
2018-11-11T21:52:51.243Z,16.70
2018-11-11T21:55:19.848Z,16.47
2018-11-11T21:57:48.416Z,17.73
2018-11-11T22:00:16.843Z,16.43
2018-11-11T22:02:45.334Z,16.30
2018-11-11T22:05:13.956Z,16.70
2018-11-11T22:09:12.299Z,18.23
2018-11-11T22:11:40.948Z,17.83
2018-11-11T22:14:09.513Z,20.13
2018-11-11T22:16:37.920Z,18.43
2018-11-11T22:19:06.912Z,20.27
2018-11-11T22:21:35.307Z,18.87
2018-11-11T22:24:03.723Z,20.80
2018-11-11T22:26:32.103Z,20.10
2018-11-11T22:29:00.451Z,20.57
2018-11-11T22:31:28.920Z,21.27
2018-11-11T22:33:57.325Z,20.13
2018-11-11T22:36:25.739Z,20.03
2018-11-11T22:38:54.301Z,13.83
2018-11-11T22:41:32.876Z,13.53
2018-11-11T22:44:01.745Z,12.47
2018-11-11T22:46:30.208Z,13.30
2018-11-11T22:48:58.600Z,13.40
2018-11-11T22:51:26.999Z,13.23
2018-11-11T22:53:55.371Z,14.57
2018-11-11T22:56:24.127Z,14.47
2018-11-11T22:58:52.547Z,13.23
2018-11-11T23:01:22.185Z,14.40
2018-11-11T23:03:51.171Z,13.43
2018-11-11T23:06:19.552Z,12.47
2018-11-11T23:08:48.282Z,13.13
2018-11-11T23:11:17.009Z,13.50
2018-11-11T23:13:45.438Z,13.07
2018-11-11T23:16:13.852Z,12.60
2018-11-11T23:18:43.400Z,15.03
2018-11-11T23:21:13.574Z,14.73
2018-11-11T23:23:41.966Z,13.90
2018-11-11T23:26:10.375Z,14.50
2018-11-11T23:28:38.806Z,15.73
2018-11-11T23:31:07.337Z,14.83
2018-11-11T23:33:35.729Z,15.17
2018-11-11T23:36:04.175Z,13.47
2018-11-11T23:38:32.575Z,17.33
2018-11-11T23:41:00.952Z,13.00
2018-11-11T23:43:29.364Z,14.17
2018-11-11T23:45:57.744Z,15.87
2018-11-11T23:48:26.237Z,13.23
2018-11-11T23:50:54.651Z,13.00
2018-11-11T23:53:23.159Z,12.93
2018-11-11T23:55:51.563Z,14.43
2018-11-11T23:58:19.949Z,15.67
